Terminal Aerodrome Forecast
Issued by NWS

Current Version | Previous Version | Text Only | Print | Product List | Glossary Off
Versions: 1 2 3 4 5 6 7 8 9 10 11 12 13 14 15 16 17 18 19 20 21 22 23 24

661
FTUS41 KPBZ 211401 AAA
TAFMGW
TAF AMD
KMGW 211401Z 2114/2212 02005KT P6SM SCT006 OVC060
      TEMPO 2114/2116 5SM -DZ BR BKN003
     FM211600 36005KT P6SM BKN020
     FM212200 32005KT P6SM BKN035
     FM220300 25003KT P6SM SCT050=

USA.gov is the U.S. government's official web portal to all federal, state and local government web resources and services.